sensor_id;sensor_type;location;lat;lon;timestamp;P1;durP1;ratioP1;P2;durP2;ratioP2
10503;SDS011;5299;48.704;9.138;2023-01-04T00:00:34;12.73;;;11.18;;
10503;SDS011;5299;48.704;9.138;2023-01-04T00:04:36;13.30;;;9.68;;
10503;SDS011;5299;48.704;9.138;2023-01-04T00:08:38;15.05;;;10.10;;
10503;SDS011;5299;48.704;9.138;2023-01-04T00:12:40;14.45;;;11.55;;
10503;SDS011;5299;48.704;9.138;2023-01-04T00:16:42;13.35;;;11.00;;
10503;SDS011;5299;48.704;9.138;2023-01-04T00:20:43;12.20;;;10.10;;
10503;SDS011;5299;48.704;9.138;2023-01-04T00:24:45;12.68;;;10.35;;
10503;SDS011;5299;48.704;9.138;2023-01-04T00:28:47;13.65;;;10.23;;
10503;SDS011;5299;48.704;9.138;2023-01-04T00:32:55;12.55;;;9.93;;
10503;SDS011;5299;48.704;9.138;2023-01-04T00:36:58;12.45;;;9.18;;
10503;SDS011;5299;48.704;9.138;2023-01-04T00:41:00;11.18;;;8.32;;
10503;SDS011;5299;48.704;9.138;2023-01-04T00:45:02;12.60;;;9.40;;
10503;SDS011;5299;48.704;9.138;2023-01-04T00:49:04;12.88;;;9.98;;
10503;SDS011;5299;48.704;9.138;2023-01-04T00:53:06;15.25;;;10.77;;
10503;SDS011;5299;48.704;9.138;2023-01-04T00:57:08;13.95;;;10.65;;
10503;SDS011;5299;48.704;9.138;2023-01-04T01:01:10;17.25;;;10.10;;
10503;SDS011;5299;48.704;9.138;2023-01-04T01:05:12;12.45;;;9.48;;
10503;SDS011;5299;48.704;9.138;2023-01-04T01:09:13;13.05;;;9.98;;
10503;SDS011;5299;48.704;9.138;2023-01-04T01:13:17;13.00;;;9.30;;
10503;SDS011;5299;48.704;9.138;2023-01-04T01:17:19;11.88;;;9.07;;
10503;SDS011;5299;48.704;9.138;2023-01-04T01:21:22;11.77;;;8.52;;
10503;SDS011;5299;48.704;9.138;2023-01-04T01:25:25;12.73;;;9.38;;
10503;SDS011;5299;48.704;9.138;2023-01-04T01:29:27;11.68;;;8.48;;
10503;SDS011;5299;48.704;9.138;2023-01-04T01:33:28;13.20;;;9.52;;
10503;SDS011;5299;48.704;9.138;2023-01-04T01:37:30;14.30;;;9.20;;
10503;SDS011;5299;48.704;9.138;2023-01-04T01:41:33;12.35;;;9.00;;
10503;SDS011;5299;48.704;9.138;2023-01-04T01:45:35;12.63;;;8.52;;
10503;SDS011;5299;48.704;9.138;2023-01-04T01:49:37;9.85;;;7.60;;
10503;SDS011;5299;48.704;9.138;2023-01-04T01:53:40;10.13;;;7.90;;
10503;SDS011;5299;48.704;9.138;2023-01-04T01:57:44;9.52;;;7.07;;
10503;SDS011;5299;48.704;9.138;2023-01-04T02:01:48;9.40;;;6.63;;
10503;SDS011;5299;48.704;9.138;2023-01-04T02:05:50;10.77;;;7.70;;
10503;SDS011;5299;48.704;9.138;2023-01-04T02:09:54;9.80;;;6.88;;
10503;SDS011;5299;48.704;9.138;2023-01-04T02:13:56;9.38;;;7.63;;
10503;SDS011;5299;48.704;9.138;2023-01-04T02:18:20;13.30;;;7.03;;
10503;SDS011;5299;48.704;9.138;2023-01-04T02:48:00;10.90;;;7.13;;
10503;SDS011;5299;48.704;9.138;2023-01-04T02:52:23;9.80;;;6.53;;
10503;SDS011;5299;48.704;9.138;2023-01-04T03:00:50;11.30;;;7.30;;
10503;SDS011;5299;48.704;9.138;2023-01-04T03:05:29;8.57;;;5.45;;
10503;SDS011;5299;48.704;9.138;2023-01-04T03:09:59;8.95;;;5.72;;
10503;SDS011;5299;48.704;9.138;2023-01-04T03:18:34;9.88;;;6.30;;
10503;SDS011;5299;48.704;9.138;2023-01-04T03:22:39;10.52;;;6.72;;
10503;SDS011;5299;48.704;9.138;2023-01-04T03:27:03;8.93;;;5.72;;
10503;SDS011;5299;48.704;9.138;2023-01-04T03:31:31;11.90;;;6.90;;
10503;SDS011;5299;48.704;9.138;2023-01-04T03:40:25;9.40;;;6.47;;
10503;SDS011;5299;48.704;9.138;2023-01-04T03:44:55;9.32;;;5.60;;
10503;SDS011;5299;48.704;9.138;2023-01-04T03:49:40;8.98;;;5.70;;
10503;SDS011;5299;48.704;9.138;2023-01-04T03:57:56;8.60;;;4.90;;
10503;SDS011;5299;48.704;9.138;2023-01-04T04:01:58;7.75;;;5.07;;
10503;SDS011;5299;48.704;9.138;2023-01-04T04:06:00;7.43;;;4.40;;
10503;SDS011;5299;48.704;9.138;2023-01-04T04:10:20;4.80;;;3.70;;
10503;SDS011;5299;48.704;9.138;2023-01-04T04:14:22;5.72;;;3.92;;
10503;SDS011;5299;48.704;9.138;2023-01-04T04:18:23;6.18;;;3.97;;
10503;SDS011;5299;48.704;9.138;2023-01-04T04:22:25;6.95;;;4.43;;
10503;SDS011;5299;48.704;9.138;2023-01-04T04:26:27;7.82;;;3.65;;
10503;SDS011;5299;48.704;9.138;2023-01-04T04:30:29;5.97;;;3.60;;
10503;SDS011;5299;48.704;9.138;2023-01-04T04:34:30;6.25;;;3.47;;
10503;SDS011;5299;48.704;9.138;2023-01-04T04:38:32;5.68;;;3.85;;
10503;SDS011;5299;48.704;9.138;2023-01-04T04:42:34;6.05;;;4.30;;
10503;SDS011;5299;48.704;9.138;2023-01-04T04:46:36;5.35;;;3.45;;
10503;SDS011;5299;48.704;9.138;2023-01-04T04:50:38;5.10;;;2.80;;
10503;SDS011;5299;48.704;9.138;2023-01-04T04:54:39;5.43;;;3.40;;
10503;SDS011;5299;48.704;9.138;2023-01-04T04:58:41;5.28;;;2.92;;
10503;SDS011;5299;48.704;9.138;2023-01-04T05:02:42;5.53;;;3.67;;
10503;SDS011;5299;48.704;9.138;2023-01-04T05:06:45;6.28;;;3.83;;
10503;SDS011;5299;48.704;9.138;2023-01-04T05:10:47;6.40;;;3.60;;
10503;SDS011;5299;48.704;9.138;2023-01-04T05:14:49;5.68;;;3.60;;
10503;SDS011;5299;48.704;9.138;2023-01-04T05:18:50;5.43;;;3.50;;
10503;SDS011;5299;48.704;9.138;2023-01-04T05:22:52;5.10;;;3.20;;
10503;SDS011;5299;48.704;9.138;2023-01-04T05:26:54;6.03;;;3.30;;
10503;SDS011;5299;48.704;9.138;2023-01-04T05:30:55;5.13;;;2.72;;
10503;SDS011;5299;48.704;9.138;2023-01-04T05:34:57;4.50;;;2.75;;
10503;SDS011;5299;48.704;9.138;2023-01-04T05:38:59;4.90;;;2.60;;
10503;SDS011;5299;48.704;9.138;2023-01-04T05:43:00;3.67;;;2.55;;
10503;SDS011;5299;48.704;9.138;2023-01-04T05:47:02;4.53;;;2.58;;
10503;SDS011;5299;48.704;9.138;2023-01-04T05:51:03;5.93;;;3.85;;
10503;SDS011;5299;48.704;9.138;2023-01-04T05:55:05;5.10;;;2.95;;
10503;SDS011;5299;48.704;9.138;2023-01-04T05:59:07;5.22;;;2.97;;
10503;SDS011;5299;48.704;9.138;2023-01-04T06:03:08;4.57;;;3.13;;
10503;SDS011;5299;48.704;9.138;2023-01-04T06:07:10;4.18;;;2.88;;
10503;SDS011;5299;48.704;9.138;2023-01-04T06:11:11;5.40;;;3.13;;
10503;SDS011;5299;48.704;9.138;2023-01-04T06:15:13;5.43;;;3.17;;
10503;SDS011;5299;48.704;9.138;2023-01-04T06:19:15;5.65;;;3.05;;
10503;SDS011;5299;48.704;9.138;2023-01-04T06:23:16;6.80;;;2.97;;
10503;SDS011;5299;48.704;9.138;2023-01-04T06:27:18;5.72;;;3.28;;
10503;SDS011;5299;48.704;9.138;2023-01-04T06:31:20;5.45;;;2.78;;
10503;SDS011;5299;48.704;9.138;2023-01-04T06:35:21;3.28;;;1.98;;
10503;SDS011;5299;48.704;9.138;2023-01-04T06:39:23;4.10;;;2.35;;
10503;SDS011;5299;48.704;9.138;2023-01-04T06:43:25;6.00;;;2.88;;
10503;SDS011;5299;48.704;9.138;2023-01-04T06:47:27;4.90;;;2.83;;
10503;SDS011;5299;48.704;9.138;2023-01-04T06:51:28;5.32;;;2.70;;
10503;SDS011;5299;48.704;9.138;2023-01-04T06:55:30;4.00;;;2.50;;
10503;SDS011;5299;48.704;9.138;2023-01-04T06:59:32;3.30;;;2.20;;
10503;SDS011;5299;48.704;9.138;2023-01-04T07:03:34;5.25;;;2.72;;
10503;SDS011;5299;48.704;9.138;2023-01-04T07:07:35;6.07;;;2.13;;
10503;SDS011;5299;48.704;9.138;2023-01-04T07:11:37;5.22;;;2.58;;
10503;SDS011;5299;48.704;9.138;2023-01-04T07:15:39;4.90;;;1.88;;
10503;SDS011;5299;48.704;9.138;2023-01-04T07:19:41;3.05;;;2.13;;
10503;SDS011;5299;48.704;9.138;2023-01-04T07:23:43;3.00;;;1.75;;
10503;SDS011;5299;48.704;9.138;2023-01-04T07:27:51;5.00;;;2.20;;
10503;SDS011;5299;48.704;9.138;2023-01-04T07:31:54;4.35;;;2.35;;
10503;SDS011;5299;48.704;9.138;2023-01-04T07:36:00;3.33;;;1.83;;
10503;SDS011;5299;48.704;9.138;2023-01-04T07:40:02;4.15;;;2.53;;
10503;SDS011;5299;48.704;9.138;2023-01-04T07:44:04;2.35;;;1.65;;
10503;SDS011;5299;48.704;9.138;2023-01-04T07:48:06;4.53;;;2.10;;
10503;SDS011;5299;48.704;9.138;2023-01-04T07:52:07;3.38;;;1.75;;
10503;SDS011;5299;48.704;9.138;2023-01-04T07:56:09;3.28;;;1.75;;
10503;SDS011;5299;48.704;9.138;2023-01-04T08:00:18;2.65;;;1.80;;
10503;SDS011;5299;48.704;9.138;2023-01-04T08:04:21;3.30;;;1.75;;
10503;SDS011;5299;48.704;9.138;2023-01-04T08:08:31;3.05;;;1.80;;
10503;SDS011;5299;48.704;9.138;2023-01-04T08:12:33;2.60;;;1.50;;
10503;SDS011;5299;48.704;9.138;2023-01-04T08:16:35;4.53;;;1.70;;
10503;SDS011;5299;48.704;9.138;2023-01-04T08:20:38;2.78;;;1.70;;
10503;SDS011;5299;48.704;9.138;2023-01-04T08:24:40;4.88;;;2.20;;
10503;SDS011;5299;48.704;9.138;2023-01-04T08:28:42;1.30;;;1.00;;
10503;SDS011;5299;48.704;9.138;2023-01-04T08:32:43;2.72;;;1.35;;
10503;SDS011;5299;48.704;9.138;2023-01-04T08:36:46;2.55;;;1.50;;
10503;SDS011;5299;48.704;9.138;2023-01-04T08:40:49;2.03;;;1.00;;
10503;SDS011;5299;48.704;9.138;2023-01-04T08:45:07;3.08;;;1.35;;
10503;SDS011;5299;48.704;9.138;2023-01-04T08:49:10;3.95;;;1.83;;
10503;SDS011;5299;48.704;9.138;2023-01-04T08:53:11;2.35;;;1.42;;
10503;SDS011;5299;48.704;9.138;2023-01-04T08:57:13;7.60;;;2.00;;
10503;SDS011;5299;48.704;9.138;2023-01-04T09:01:15;3.58;;;1.52;;
10503;SDS011;5299;48.704;9.138;2023-01-04T09:05:17;4.20;;;1.35;;
10503;SDS011;5299;48.704;9.138;2023-01-04T09:09:23;3.63;;;1.63;;
10503;SDS011;5299;48.704;9.138;2023-01-04T09:13:24;2.55;;;1.60;;
10503;SDS011;5299;48.704;9.138;2023-01-04T09:17:26;2.38;;;1.33;;
10503;SDS011;5299;48.704;9.138;2023-01-04T09:21:27;2.53;;;1.08;;
10503;SDS011;5299;48.704;9.138;2023-01-04T09:25:29;2.53;;;1.10;;
10503;SDS011;5299;48.704;9.138;2023-01-04T09:29:31;2.00;;;1.17;;
10503;SDS011;5299;48.704;9.138;2023-01-04T09:33:33;1.83;;;1.17;;
10503;SDS011;5299;48.704;9.138;2023-01-04T09:37:55;2.88;;;1.50;;
10503;SDS011;5299;48.704;9.138;2023-01-04T09:41:58;1.70;;;1.13;;
10503;SDS011;5299;48.704;9.138;2023-01-04T09:46:06;1.73;;;0.80;;
10503;SDS011;5299;48.704;9.138;2023-01-04T09:50:15;1.92;;;0.82;;
10503;SDS011;5299;48.704;9.138;2023-01-04T09:54:21;3.40;;;1.00;;
10503;SDS011;5299;48.704;9.138;2023-01-04T09:58:31;1.98;;;0.95;;
10503;SDS011;5299;48.704;9.138;2023-01-04T10:02:50;2.00;;;1.30;;
10503;SDS011;5299;48.704;9.138;2023-01-04T10:06:55;2.78;;;1.42;;
10503;SDS011;5299;48.704;9.138;2023-01-04T10:15:26;5.07;;;1.88;;
10503;SDS011;5299;48.704;9.138;2023-01-04T10:29:33;3.30;;;1.00;;
10503;SDS011;5299;48.704;9.138;2023-01-04T10:33:47;2.95;;;1.20;;
10503;SDS011;5299;48.704;9.138;2023-01-04T10:37:51;2.20;;;1.02;;
10503;SDS011;5299;48.704;9.138;2023-01-04T10:41:58;1.25;;;0.80;;
10503;SDS011;5299;48.704;9.138;2023-01-04T10:50:19;2.83;;;1.02;;
10503;SDS011;5299;48.704;9.138;2023-01-04T10:58:43;1.42;;;0.88;;
10503;SDS011;5299;48.704;9.138;2023-01-04T11:02:57;2.15;;;1.20;;
10503;SDS011;5299;48.704;9.138;2023-01-04T11:07:14;1.30;;;0.82;;
10503;SDS011;5299;48.704;9.138;2023-01-04T11:11:20;3.95;;;1.15;;
10503;SDS011;5299;48.704;9.138;2023-01-04T11:15:27;1.67;;;0.90;;
10503;SDS011;5299;48.704;9.138;2023-01-04T11:19:29;1.20;;;0.93;;
10503;SDS011;5299;48.704;9.138;2023-01-04T11:23:30;1.15;;;0.95;;
10503;SDS011;5299;48.704;9.138;2023-01-04T11:27:34;1.65;;;0.90;;
10503;SDS011;5299;48.704;9.138;2023-01-04T11:31:47;1.42;;;0.75;;
10503;SDS011;5299;48.704;9.138;2023-01-04T11:35:55;1.63;;;0.90;;
10503;SDS011;5299;48.704;9.138;2023-01-04T11:44:17;3.50;;;1.03;;
10503;SDS011;5299;48.704;9.138;2023-01-04T11:48:28;1.20;;;0.90;;
10503;SDS011;5299;48.704;9.138;2023-01-04T11:52:33;2.42;;;1.35;;
10503;SDS011;5299;48.704;9.138;2023-01-04T11:56:55;1.27;;;1.00;;
10503;SDS011;5299;48.704;9.138;2023-01-04T12:01:19;2.20;;;1.08;;
10503;SDS011;5299;48.704;9.138;2023-01-04T12:05:22;4.80;;;1.20;;
10503;SDS011;5299;48.704;9.138;2023-01-04T12:09:30;2.55;;;1.15;;
10503;SDS011;5299;48.704;9.138;2023-01-04T12:13:32;1.88;;;1.20;;
10503;SDS011;5299;48.704;9.138;2023-01-04T12:17:38;2.30;;;1.30;;
10503;SDS011;5299;48.704;9.138;2023-01-04T12:21:50;2.85;;;0.98;;
10503;SDS011;5299;48.704;9.138;2023-01-04T12:25:53;4.50;;;1.10;;
10503;SDS011;5299;48.704;9.138;2023-01-04T12:29:57;3.25;;;0.82;;
10503;SDS011;5299;48.704;9.138;2023-01-04T12:34:46;2.35;;;0.98;;
10503;SDS011;5299;48.704;9.138;2023-01-04T12:38:55;1.88;;;1.10;;
10503;SDS011;5299;48.704;9.138;2023-01-04T12:51:46;2.17;;;1.20;;
10503;SDS011;5299;48.704;9.138;2023-01-04T12:56:08;2.05;;;1.20;;
10503;SDS011;5299;48.704;9.138;2023-01-04T13:00:11;2.15;;;1.00;;
10503;SDS011;5299;48.704;9.138;2023-01-04T13:04:57;1.63;;;0.80;;
10503;SDS011;5299;48.704;9.138;2023-01-04T13:08:41;1.10;;;1.00;;
10503;SDS011;5299;48.704;9.138;2023-01-04T13:17:06;4.20;;;1.63;;
10503;SDS011;5299;48.704;9.138;2023-01-04T13:25:23;1.20;;;0.90;;
10503;SDS011;5299;48.704;9.138;2023-01-04T13:33:31;4.43;;;0.90;;
10503;SDS011;5299;48.704;9.138;2023-01-04T13:37:34;1.10;;;0.68;;
10503;SDS011;5299;48.704;9.138;2023-01-04T13:41:38;1.65;;;1.35;;
10503;SDS011;5299;48.704;9.138;2023-01-04T13:50:26;2.45;;;1.05;;
10503;SDS011;5299;48.704;9.138;2023-01-04T13:54:30;1.42;;;0.70;;
10503;SDS011;5299;48.704;9.138;2023-01-04T13:58:35;1.02;;;0.73;;
10503;SDS011;5299;48.704;9.138;2023-01-04T14:02:37;1.83;;;1.23;;
10503;SDS011;5299;48.704;9.138;2023-01-04T14:06:40;1.80;;;0.80;;
10503;SDS011;5299;48.704;9.138;2023-01-04T14:10:42;3.05;;;0.80;;
10503;SDS011;5299;48.704;9.138;2023-01-04T14:14:49;1.75;;;0.93;;
10503;SDS011;5299;48.704;9.138;2023-01-04T14:18:51;1.55;;;1.10;;
10503;SDS011;5299;48.704;9.138;2023-01-04T14:22:54;1.00;;;0.70;;
10503;SDS011;5299;48.704;9.138;2023-01-04T14:26:58;1.67;;;0.80;;
10503;SDS011;5299;48.704;9.138;2023-01-04T14:35:04;1.52;;;0.70;;
10503;SDS011;5299;48.704;9.138;2023-01-04T14:39:08;1.05;;;0.80;;
10503;SDS011;5299;48.704;9.138;2023-01-04T14:43:31;1.63;;;0.88;;
10503;SDS011;5299;48.704;9.138;2023-01-04T14:47:34;2.17;;;0.90;;
10503;SDS011;5299;48.704;9.138;2023-01-04T14:51:37;1.38;;;0.80;;
10503;SDS011;5299;48.704;9.138;2023-01-04T14:55:44;2.20;;;0.70;;
10503;SDS011;5299;48.704;9.138;2023-01-04T14:59:46;2.33;;;1.00;;
10503;SDS011;5299;48.704;9.138;2023-01-04T15:03:48;5.43;;;1.05;;
10503;SDS011;5299;48.704;9.138;2023-01-04T15:07:49;1.67;;;0.80;;
10503;SDS011;5299;48.704;9.138;2023-01-04T15:11:51;1.63;;;0.80;;
10503;SDS011;5299;48.704;9.138;2023-01-04T15:15:53;2.97;;;0.88;;
10503;SDS011;5299;48.704;9.138;2023-01-04T15:19:54;2.00;;;1.33;;
10503;SDS011;5299;48.704;9.138;2023-01-04T15:23:56;2.35;;;0.88;;
10503;SDS011;5299;48.704;9.138;2023-01-04T15:27:58;1.23;;;0.73;;
10503;SDS011;5299;48.704;9.138;2023-01-04T15:31:59;1.30;;;1.00;;
10503;SDS011;5299;48.704;9.138;2023-01-04T15:36:02;1.10;;;0.70;;
10503;SDS011;5299;48.704;9.138;2023-01-04T15:40:23;2.60;;;1.10;;
10503;SDS011;5299;48.704;9.138;2023-01-04T15:44:25;3.70;;;1.08;;
10503;SDS011;5299;48.704;9.138;2023-01-04T15:48:27;1.92;;;0.82;;
10503;SDS011;5299;48.704;9.138;2023-01-04T15:52:32;1.33;;;0.80;;
10503;SDS011;5299;48.704;9.138;2023-01-04T15:56:33;4.57;;;1.05;;
10503;SDS011;5299;48.704;9.138;2023-01-04T16:00:35;1.33;;;0.80;;
10503;SDS011;5299;48.704;9.138;2023-01-04T16:04:39;1.73;;;0.90;;
10503;SDS011;5299;48.704;9.138;2023-01-04T16:08:41;1.40;;;1.25;;
10503;SDS011;5299;48.704;9.138;2023-01-04T16:12:43;1.30;;;0.70;;
10503;SDS011;5299;48.704;9.138;2023-01-04T16:16:50;2.88;;;1.40;;
10503;SDS011;5299;48.704;9.138;2023-01-04T16:20:51;1.00;;;0.90;;
10503;SDS011;5299;48.704;9.138;2023-01-04T16:24:53;1.88;;;1.00;;
10503;SDS011;5299;48.704;9.138;2023-01-04T16:29:12;2.47;;;0.95;;
10503;SDS011;5299;48.704;9.138;2023-01-04T16:33:14;2.35;;;0.80;;
10503;SDS011;5299;48.704;9.138;2023-01-04T16:37:15;2.28;;;0.95;;
10503;SDS011;5299;48.704;9.138;2023-01-04T16:41:18;4.68;;;1.20;;
10503;SDS011;5299;48.704;9.138;2023-01-04T16:45:21;1.95;;;1.05;;
10503;SDS011;5299;48.704;9.138;2023-01-04T16:49:23;2.10;;;1.00;;
10503;SDS011;5299;48.704;9.138;2023-01-04T16:53:24;3.05;;;1.17;;
10503;SDS011;5299;48.704;9.138;2023-01-04T16:57:26;0.60;;;0.60;;
10503;SDS011;5299;48.704;9.138;2023-01-04T17:01:29;0.88;;;0.73;;
10503;SDS011;5299;48.704;9.138;2023-01-04T17:05:38;1.05;;;0.90;;
10503;SDS011;5299;48.704;9.138;2023-01-04T17:09:40;2.60;;;1.00;;
10503;SDS011;5299;48.704;9.138;2023-01-04T17:13:41;2.22;;;1.02;;
10503;SDS011;5299;48.704;9.138;2023-01-04T17:17:43;1.17;;;0.77;;
10503;SDS011;5299;48.704;9.138;2023-01-04T17:21:45;1.52;;;0.85;;
10503;SDS011;5299;48.704;9.138;2023-01-04T17:25:47;1.13;;;0.80;;
10503;SDS011;5299;48.704;9.138;2023-01-04T17:29:49;1.45;;;0.85;;
10503;SDS011;5299;48.704;9.138;2023-01-04T17:33:50;1.40;;;1.02;;
10503;SDS011;5299;48.704;9.138;2023-01-04T17:37:52;1.02;;;0.70;;
10503;SDS011;5299;48.704;9.138;2023-01-04T17:41:53;2.60;;;1.08;;
10503;SDS011;5299;48.704;9.138;2023-01-04T17:45:59;1.90;;;0.80;;
10503;SDS011;5299;48.704;9.138;2023-01-04T17:50:02;4.68;;;1.20;;
10503;SDS011;5299;48.704;9.138;2023-01-04T17:54:04;3.03;;;0.90;;
10503;SDS011;5299;48.704;9.138;2023-01-04T17:58:06;2.22;;;0.70;;
10503;SDS011;5299;48.704;9.138;2023-01-04T18:02:12;1.63;;;0.70;;
10503;SDS011;5299;48.704;9.138;2023-01-04T18:06:14;1.17;;;0.85;;
10503;SDS011;5299;48.704;9.138;2023-01-04T18:10:26;1.45;;;0.75;;
10503;SDS011;5299;48.704;9.138;2023-01-04T18:14:47;0.85;;;0.68;;
10503;SDS011;5299;48.704;9.138;2023-01-04T18:18:49;2.25;;;0.88;;
10503;SDS011;5299;48.704;9.138;2023-01-04T18:22:52;0.90;;;0.70;;
10503;SDS011;5299;48.704;9.138;2023-01-04T18:26:54;0.80;;;0.77;;
10503;SDS011;5299;48.704;9.138;2023-01-04T18:31:17;1.67;;;0.90;;
10503;SDS011;5299;48.704;9.138;2023-01-04T18:35:20;2.78;;;0.70;;
10503;SDS011;5299;48.704;9.138;2023-01-04T18:39:21;0.60;;;0.60;;
10503;SDS011;5299;48.704;9.138;2023-01-04T18:43:23;1.17;;;0.60;;
10503;SDS011;5299;48.704;9.138;2023-01-04T18:47:25;0.60;;;0.60;;
10503;SDS011;5299;48.704;9.138;2023-01-04T18:51:28;0.98;;;0.68;;
10503;SDS011;5299;48.704;9.138;2023-01-04T18:55:30;1.13;;;0.68;;
10503;SDS011;5299;48.704;9.138;2023-01-04T18:59:31;0.80;;;0.63;;
10503;SDS011;5299;48.704;9.138;2023-01-04T19:03:37;1.02;;;0.65;;
10503;SDS011;5299;48.704;9.138;2023-01-04T19:07:40;1.15;;;0.80;;
10503;SDS011;5299;48.704;9.138;2023-01-04T19:11:41;1.77;;;0.80;;
10503;SDS011;5299;48.704;9.138;2023-01-04T19:15:46;1.17;;;0.80;;
10503;SDS011;5299;48.704;9.138;2023-01-04T19:19:48;0.85;;;0.60;;
10503;SDS011;5299;48.704;9.138;2023-01-04T19:23:50;1.00;;;0.70;;
10503;SDS011;5299;48.704;9.138;2023-01-04T19:27:53;1.08;;;0.80;;
10503;SDS011;5299;48.704;9.138;2023-01-04T19:31:54;2.30;;;1.67;;
10503;SDS011;5299;48.704;9.138;2023-01-04T19:35:56;0.68;;;0.68;;
10503;SDS011;5299;48.704;9.138;2023-01-04T19:39:58;1.02;;;0.77;;
10503;SDS011;5299;48.704;9.138;2023-01-04T19:44:00;1.73;;;0.93;;
10503;SDS011;5299;48.704;9.138;2023-01-04T19:48:02;1.60;;;0.80;;
10503;SDS011;5299;48.704;9.138;2023-01-04T19:52:04;0.60;;;0.60;;
10503;SDS011;5299;48.704;9.138;2023-01-04T19:56:06;2.05;;;1.10;;
10503;SDS011;5299;48.704;9.138;2023-01-04T20:00:09;1.75;;;1.20;;
10503;SDS011;5299;48.704;9.138;2023-01-04T20:04:11;0.75;;;0.75;;
10503;SDS011;5299;48.704;9.138;2023-01-04T20:08:14;0.90;;;0.73;;
10503;SDS011;5299;48.704;9.138;2023-01-04T20:12:15;0.88;;;0.63;;
10503;SDS011;5299;48.704;9.138;2023-01-04T20:16:17;0.95;;;0.75;;
10503;SDS011;5299;48.704;9.138;2023-01-04T20:20:19;1.58;;;0.90;;
10503;SDS011;5299;48.704;9.138;2023-01-04T20:24:22;0.95;;;0.75;;
10503;SDS011;5299;48.704;9.138;2023-01-04T20:28:23;0.95;;;0.73;;
10503;SDS011;5299;48.704;9.138;2023-01-04T20:32:25;1.83;;;0.70;;
10503;SDS011;5299;48.704;9.138;2023-01-04T20:36:27;1.23;;;1.10;;
10503;SDS011;5299;48.704;9.138;2023-01-04T20:40:31;0.82;;;0.70;;
10503;SDS011;5299;48.704;9.138;2023-01-04T20:44:33;1.40;;;0.90;;
10503;SDS011;5299;48.704;9.138;2023-01-04T20:48:35;1.20;;;0.80;;
10503;SDS011;5299;48.704;9.138;2023-01-04T20:52:37;0.65;;;0.60;;
10503;SDS011;5299;48.704;9.138;2023-01-04T20:56:38;1.23;;;0.80;;
10503;SDS011;5299;48.704;9.138;2023-01-04T21:00:41;2.70;;;0.57;;
10503;SDS011;5299;48.704;9.138;2023-01-04T21:04:43;1.27;;;0.65;;
10503;SDS011;5299;48.704;9.138;2023-01-04T21:08:48;1.77;;;0.80;;
10503;SDS011;5299;48.704;9.138;2023-01-04T21:12:55;1.73;;;0.80;;
10503;SDS011;5299;48.704;9.138;2023-01-04T21:16:57;0.85;;;0.70;;
10503;SDS011;5299;48.704;9.138;2023-01-04T21:21:02;0.85;;;0.70;;
10503;SDS011;5299;48.704;9.138;2023-01-04T21:25:08;1.90;;;0.80;;
10503;SDS011;5299;48.704;9.138;2023-01-04T21:29:10;1.20;;;0.70;;
10503;SDS011;5299;48.704;9.138;2023-01-04T21:33:12;0.98;;;0.70;;
10503;SDS011;5299;48.704;9.138;2023-01-04T21:37:14;1.20;;;0.90;;
10503;SDS011;5299;48.704;9.138;2023-01-04T21:41:16;0.80;;;0.70;;
10503;SDS011;5299;48.704;9.138;2023-01-04T21:45:18;1.88;;;0.80;;
10503;SDS011;5299;48.704;9.138;2023-01-04T21:49:20;1.10;;;0.70;;
10503;SDS011;5299;48.704;9.138;2023-01-04T21:53:21;0.90;;;0.90;;
10503;SDS011;5299;48.704;9.138;2023-01-04T21:57:23;1.60;;;0.70;;
10503;SDS011;5299;48.704;9.138;2023-01-04T22:01:26;1.50;;;0.82;;
10503;SDS011;5299;48.704;9.138;2023-01-04T22:05:35;1.15;;;0.68;;
10503;SDS011;5299;48.704;9.138;2023-01-04T22:09:36;1.33;;;0.90;;
10503;SDS011;5299;48.704;9.138;2023-01-04T22:13:38;0.95;;;0.80;;
10503;SDS011;5299;48.704;9.138;2023-01-04T22:17:40;1.15;;;0.75;;
10503;SDS011;5299;48.704;9.138;2023-01-04T22:21:42;1.00;;;0.80;;
10503;SDS011;5299;48.704;9.138;2023-01-04T22:25:43;0.60;;;0.60;;
10503;SDS011;5299;48.704;9.138;2023-01-04T22:29:45;0.82;;;0.70;;
10503;SDS011;5299;48.704;9.138;2023-01-04T22:33:47;1.50;;;0.70;;
10503;SDS011;5299;48.704;9.138;2023-01-04T22:37:48;1.83;;;0.75;;
10503;SDS011;5299;48.704;9.138;2023-01-04T22:41:50;0.75;;;0.60;;
10503;SDS011;5299;48.704;9.138;2023-01-04T22:45:57;1.02;;;0.70;;
10503;SDS011;5299;48.704;9.138;2023-01-04T22:50:01;5.72;;;1.23;;
10503;SDS011;5299;48.704;9.138;2023-01-04T22:54:04;1.27;;;1.02;;
10503;SDS011;5299;48.704;9.138;2023-01-04T22:58:06;2.78;;;0.90;;
10503;SDS011;5299;48.704;9.138;2023-01-04T23:02:08;1.60;;;0.80;;
10503;SDS011;5299;48.704;9.138;2023-01-04T23:06:10;1.23;;;0.77;;
10503;SDS011;5299;48.704;9.138;2023-01-04T23:10:12;0.50;;;0.50;;
10503;SDS011;5299;48.704;9.138;2023-01-04T23:14:14;0.88;;;0.80;;
10503;SDS011;5299;48.704;9.138;2023-01-04T23:18:17;2.33;;;0.63;;
10503;SDS011;5299;48.704;9.138;2023-01-04T23:22:19;1.35;;;0.60;;
10503;SDS011;5299;48.704;9.138;2023-01-04T23:26:21;3.53;;;0.82;;
10503;SDS011;5299;48.704;9.138;2023-01-04T23:30:24;1.20;;;0.70;;
10503;SDS011;5299;48.704;9.138;2023-01-04T23:34:25;1.10;;;0.50;;
10503;SDS011;5299;48.704;9.138;2023-01-04T23:38:27;0.88;;;0.52;;
10503;SDS011;5299;48.704;9.138;2023-01-04T23:42:29;0.90;;;0.60;;
10503;SDS011;5299;48.704;9.138;2023-01-04T23:46:30;0.50;;;0.50;;
10503;SDS011;5299;48.704;9.138;2023-01-04T23:50:32;0.70;;;0.70;;
10503;SDS011;5299;48.704;9.138;2023-01-04T23:54:33;1.58;;;0.82;;
10503;SDS011;5299;48.704;9.138;2023-01-04T23:58:35;0.70;;;0.70;;
